Time;durP1;ratioP1;P1;durP2;ratioP2;P2;SDS_P1;SDS_P2;PMS_P1;PMS_P2;Temp;Humidity;BMP_temperature;BMP_pressure;BME280_temperature;BME280_humidity;BME280_pressure;Samples;Min_cycle;Max_cycle;Signal;HPM_P1;HPM_P2
2022/10/17 00:04:44;;;;;;;26.55;12.85;;;;;;;12.09;100.00;101313.47;10459670;28;20087;-73
2022/10/17 00:09:47;;;;;;;29.75;13.43;;;;;;;12.06;100.00;101308.34;10461695;28;20119;-73
2022/10/17 00:14:48;;;;;;;28.65;14.20;;;;;;;12.31;100.00;101309.06;10462064;28;20076;-73
2022/10/17 00:19:50;;;;;;;25.85;13.77;;;;;;;12.23;100.00;101301.56;10461187;28;20059;-73
2022/10/17 00:24:53;;;;;;;22.92;13.30;;;;;;;12.32;100.00;101301.16;10461314;28;20099;-73
2022/10/17 00:29:55;;;;;;;25.25;13.45;;;;;;;12.28;100.00;101293.53;10461194;28;20045;-74
2022/10/17 00:34:57;;;;;;;23.33;13.05;;;;;;;12.47;100.00;101293.56;10458582;28;20067;-75
2022/10/17 00:40:03;;;;;;;25.35;13.82;;;;;;;12.20;100.00;101289.47;10460666;28;20041;-73
2022/10/17 00:45:23;;;;;;;25.50;13.32;;;;;;;12.10;100.00;101290.75;10459289;28;20425;-74
2022/10/17 00:50:26;;;;;;;25.27;14.70;;;;;;;12.24;100.00;101287.56;10458645;28;20095;-74
2022/10/17 00:55:35;;;;;;;27.38;13.93;;;;;;;12.29;100.00;101285.59;10459678;28;20125;-73
2022/10/17 01:00:36;;;;;;;28.63;14.45;;;;;;;12.29;100.00;101276.91;10459602;28;20045;-72
2022/10/17 01:05:41;;;;;;;27.40;14.35;;;;;;;12.29;100.00;101280.38;10457381;28;20049;-73
2022/10/17 01:11:03;;;;;;;31.90;15.50;;;;;;;12.27;100.00;101282.19;10459323;28;20076;-72
2022/10/17 01:16:13;;;;;;;30.25;15.10;;;;;;;12.37;100.00;101285.28;10459033;28;20045;-73
2022/10/17 01:21:39;;;;;;;28.05;14.90;;;;;;;12.39;100.00;101286.06;10459116;28;20083;-74
2022/10/17 01:27:10;;;;;;;31.75;16.48;;;;;;;12.62;100.00;101282.44;10458970;28;20114;-72
2022/10/17 01:32:18;;;;;;;35.10;16.92;;;;;;;12.72;100.00;101282.00;10456655;28;20086;-74
2022/10/17 01:37:30;;;;;;;28.23;15.60;;;;;;;13.05;100.00;101278.81;10458201;28;20053;-74
2022/10/17 01:42:37;;;;;;;;;;;;;;;13.32;100.00;101278.44;10459225;28;20095;-74
2022/10/17 01:47:42;;;;;;;23.98;12.52;;;;;;;13.37;100.00;101267.72;10457934;28;19920;-74
2022/10/17 01:52:52;;;;;;;20.60;13.45;;;;;;;13.53;100.00;101267.88;10458295;28;20048;-73
2022/10/17 01:58:00;;;;;;;17.40;13.18;;;;;;;13.58;100.00;101275.53;10457911;28;20542;-76
2022/10/17 02:03:13;;;;;;;20.88;12.73;;;;;;;13.55;100.00;101271.25;10455653;28;20068;-75
2022/10/17 02:08:26;;;;;;;16.35;12.07;;;;;;;13.59;100.00;101261.50;10456759;28;20056;-74
2022/10/17 02:13:46;;;;;;;19.05;12.48;;;;;;;13.60;100.00;101258.78;10457049;28;20538;-75
2022/10/17 02:19:11;;;;;;;16.05;11.75;;;;;;;13.79;100.00;101247.38;10486507;28;20056;-75
2022/10/17 02:24:25;;;;;;;16.58;11.57;;;;;;;13.73;100.00;101252.94;10498877;28;20185;-75
2022/10/17 02:29:33;;;;;;;14.70;11.38;;;;;;;13.81;100.00;101258.66;10498286;28;20114;-80
2022/10/17 02:34:43;;;;;;;20.15;11.23;;;;;;;13.89;100.00;101246.00;10496370;28;20056;-78
2022/10/17 02:39:46;;;;;;;17.65;11.80;;;;;;;13.97;100.00;101260.53;10497786;28;20044;-79
2022/10/17 02:44:49;;;;;;;19.58;12.80;;;;;;;13.98;100.00;101246.47;10498120;28;20045;-75
2022/10/17 02:49:58;;;;;;;22.98;12.55;;;;;;;13.97;100.00;101252.66;10498186;28;20062;-78
2022/10/17 02:55:10;;;;;;;21.02;13.13;;;;;;;13.83;100.00;101258.59;10472797;28;20409;-76
2022/10/17 03:00:15;;;;;;;16.38;13.00;;;;;;;13.96;100.00;101243.09;10456239;28;20060;-74
2022/10/17 03:05:22;;;;;;;16.60;11.75;;;;;;;13.87;100.00;101245.25;10452953;28;20501;-73
2022/10/17 03:10:25;;;;;;;20.95;11.55;;;;;;;13.92;100.00;101242.38;10455225;28;20562;-76
2022/10/17 03:15:27;;;;;;;17.55;11.30;;;;;;;13.90;100.00;101250.31;10455093;28;20079;-73
2022/10/17 03:20:30;;;;;;;16.30;11.65;;;;;;;13.72;100.00;101256.50;10455140;28;20057;-73
2022/10/17 03:25:32;;;;;;;15.70;11.82;;;;;;;13.70;100.00;101253.09;10455776;28;20054;-75
2022/10/17 03:30:33;;;;;;;19.20;11.82;;;;;;;13.97;100.00;101258.75;10456011;28;20110;-76
2022/10/17 03:35:38;;;;;;;;;;;;;;;14.03;100.00;101245.31;10454714;28;20045;-75
2022/10/17 03:40:40;;;;;;;10.80;9.57;;;;;;;14.07;100.00;101246.00;10455997;28;19924;-73
2022/10/17 03:45:42;;;;;;;13.23;10.60;;;;;;;14.08;100.00;101252.97;10457028;28;20053;-75
2022/10/17 03:50:45;;;;;;;12.18;9.75;;;;;;;14.16;100.00;101237.66;10467613;28;20071;-77
2022/10/17 03:55:46;;;;;;;13.15;9.18;;;;;;;14.16;100.00;101240.28;10468451;28;20045;-77
2022/10/17 04:00:48;;;;;;;17.73;9.65;;;;;;;14.23;100.00;101246.06;10459700;28;20055;-72
2022/10/17 04:05:51;;;;;;;;;;;;;;;14.36;100.00;101246.28;10455692;28;20053;-81
2022/10/17 04:10:53;;;;;;;11.77;8.75;;;;;;;14.41;100.00;101254.75;10456396;28;19920;-78
2022/10/17 04:15:55;;;;;;;10.95;8.63;;;;;;;14.55;100.00;101250.56;10457311;28;20076;-79
2022/10/17 04:21:00;;;;;;;16.38;8.80;;;;;;;14.55;100.00;101266.34;10460951;28;20056;-80
2022/10/17 04:26:05;;;;;;;10.40;8.55;;;;;;;14.59;100.00;101261.75;10462670;28;20389;-81
2022/10/17 04:31:12;;;;;;;12.20;8.75;;;;;;;14.62;100.00;101272.97;10459921;28;20063;-79
2022/10/17 04:36:18;;;;;;;10.25;8.43;;;;;;;14.71;100.00;101276.84;10461513;28;20069;-76
2022/10/17 04:41:20;;;;;;;11.75;7.57;;;;;;;14.83;100.00;101285.06;10461267;28;20075;-75
2022/10/17 04:46:22;;;;;;;10.30;8.32;;;;;;;14.94;100.00;101298.47;10461130;28;20060;-76
2022/10/17 04:51:25;;;;;;;9.80;7.78;;;;;;;14.86;100.00;101296.25;10460036;28;20487;-78
2022/10/17 04:56:27;;;;;;;12.90;8.32;;;;;;;14.79;100.00;101310.66;10460051;28;20385;-77
2022/10/17 05:01:28;;;;;;;9.48;7.47;;;;;;;14.80;100.00;101321.09;10458078;28;20064;-79
2022/10/17 05:06:32;;;;;;;11.23;7.20;;;;;;;14.82;100.00;101318.38;10460024;28;20458;-76
2022/10/17 05:11:34;;;;;;;15.38;7.25;;;;;;;14.75;100.00;101319.59;10459609;28;20539;-73
2022/10/17 05:16:35;;;;;;;13.95;8.18;;;;;;;14.79;100.00;101308.03;10460344;28;20080;-64
2022/10/17 05:21:38;;;;;;;;;;;;;;;14.79;100.00;101315.91;10459694;28;20103;-64
2022/10/17 05:26:40;;;;;;;10.40;7.45;;;;;;;14.98;100.00;101320.19;10458533;28;20323;-68
2022/10/17 05:31:42;;;;;;;10.82;7.25;;;;;;;15.04;100.00;101319.84;10455858;28;20496;-63
2022/10/17 05:36:45;;;;;;;;;;;;;;;15.08;100.00;101328.44;10458543;28;20049;-64
2022/10/17 05:41:47;;;;;;;14.20;7.68;;;;;;;15.00;100.00;101339.34;10458477;28;19951;-63
2022/10/17 05:46:49;;;;;;;;;;;;;;;15.04;100.00;101335.59;10458444;28;20107;-63
2022/10/17 05:51:52;;;;;;;12.55;7.22;;;;;;;15.13;100.00;101350.91;10457703;28;19951;-65
2022/10/17 05:56:55;;;;;;;9.50;7.15;;;;;;;15.12;100.00;101343.09;10457662;28;20098;-64
2022/10/17 06:01:56;;;;;;;15.75;7.85;;;;;;;15.04;100.00;101340.88;10455229;28;20114;-64
2022/10/17 06:07:00;;;;;;;8.60;7.70;;;;;;;15.14;100.00;101341.22;10457617;28;20072;-64
2022/10/17 06:12:02;;;;;;;11.73;6.93;;;;;;;15.29;100.00;101347.41;10456841;28;20097;-63
2022/10/17 06:17:03;;;;;;;8.85;7.03;;;;;;;15.30;100.00;101355.22;10456755;28;20554;-63
2022/10/17 06:22:07;;;;;;;11.48;7.35;;;;;;;15.34;100.00;101350.66;10457993;28;20076;-80
2022/10/17 06:27:09;;;;;;;12.13;7.70;;;;;;;15.37;100.00;101353.13;10457224;28;20547;-77
2022/10/17 06:32:10;;;;;;;13.13;7.20;;;;;;;15.45;100.00;101353.56;10455438;28;20496;-76
2022/10/17 06:37:13;;;;;;;14.07;7.13;;;;;;;15.47;100.00;101355.25;10457595;28;20049;-79
2022/10/17 06:42:15;;;;;;;8.45;6.28;;;;;;;15.53;100.00;101365.44;10457200;28;20049;-82
2022/10/17 06:47:16;;;;;;;8.02;6.28;;;;;;;15.63;100.00;101366.59;10457382;28;20095;-81
2022/10/17 06:52:20;;;;;;;9.98;6.57;;;;;;;15.68;100.00;101377.72;10456496;28;20053;-79
2022/10/17 06:57:21;;;;;;;10.30;6.55;;;;;;;15.84;100.00;101382.13;10456302;28;20068;-80
2022/10/17 07:02:23;;;;;;;;;;;;;;;15.95;100.00;101371.03;10454690;28;20464;-82
2022/10/17 07:07:26;;;;;;;8.57;6.32;;;;;;;16.05;100.00;101379.25;10456231;28;20023;-84
2022/10/17 07:12:28;;;;;;;10.85;6.22;;;;;;;16.05;100.00;101389.78;10418460;28;20073;-75
2022/10/17 07:17:29;;;;;;;;;;;;;;;16.08;100.00;101385.19;10414590;28;20391;-79
2022/10/17 07:22:32;;;;;;;9.60;6.10;;;;;;;16.15;100.00;101398.84;10414415;28;19921;-76
2022/10/17 07:27:35;;;;;;;10.18;5.78;;;;;;;16.22;100.00;101402.81;10413237;28;20543;-75
2022/10/17 07:32:37;;;;;;;6.78;6.00;;;;;;;16.29;100.00;101418.28;10412402;28;20053;-78
2022/10/17 07:37:41;;;;;;;;;;;;;;;16.16;100.00;101442.69;10413719;28;20082;-63
2022/10/17 07:42:43;;;;;;;9.00;5.85;;;;;;;16.31;100.00;101476.97;10413632;28;19928;-73
2022/10/17 07:47:45;;;;;;;;;;;;;;;16.29;100.00;101510.44;10413729;28;20045;-73
2022/10/17 07:52:48;;;;;;;12.05;5.57;;;;;;;16.39;100.00;101524.78;10415612;28;19921;-74
2022/10/17 07:57:50;;;;;;;11.23;5.32;;;;;;;16.46;100.00;101526.13;10421305;28;20497;-71
2022/10/17 08:02:52;;;;;;;;;;;;;;;16.51;100.00;101539.06;10419950;28;20070;-77
2022/10/17 08:07:55;;;;;;;9.27;5.22;;;;;;;16.64;100.00;101533.94;10425921;28;19951;-81
2022/10/17 08:12:58;;;;;;;9.18;5.22;;;;;;;16.65;100.00;101540.03;10446693;28;20143;-81
2022/10/17 08:18:00;;;;;;;7.88;5.10;;;;;;;16.63;100.00;101553.31;10419086;28;20061;-79
2022/10/17 08:23:03;;;;;;;8.40;4.97;;;;;;;16.66;100.00;101590.03;10420696;28;20045;-81
2022/10/17 08:28:05;;;;;;;10.77;5.38;;;;;;;16.57;100.00;101587.91;10447087;28;20073;-80
2022/10/17 08:33:07;;;;;;;10.82;5.38;;;;;;;16.46;100.00;101599.06;10441085;28;20049;-79
2022/10/17 08:38:10;;;;;;;;;;;;;;;16.30;100.00;101593.78;10420408;28;20053;-77
2022/10/17 08:43:28;;;;;;;10.55;6.38;;;;;;;16.15;100.00;101600.75;10419786;28;19921;-78
2022/10/17 08:48:36;;;;;;;14.25;7.35;;;;;;;15.94;100.00;101600.91;10419582;28;20065;-78
2022/10/17 08:53:48;;;;;;;10.95;7.43;;;;;;;15.84;100.00;101590.03;10419634;28;20049;-76
2022/10/17 08:58:52;;;;;;;9.18;7.32;;;;;;;15.82;100.00;101595.38;10419629;28;20111;-75
2022/10/17 09:04:29;;;;;;;12.63;7.72;;;;;;;15.84;100.00;101590.88;10415771;28;20417;-76
2022/10/17 09:09:44;;;;;;;10.98;8.15;;;;;;;15.90;100.00;101618.66;10418114;28;20477;-76
2022/10/17 09:15:41;;;;;;;15.30;7.88;;;;;;;15.85;100.00;101631.22;10430657;28;20045;-72
2022/10/17 09:20:51;;;;;;;14.93;8.55;;;;;;;15.74;100.00;101657.25;10418638;28;20428;-79
2022/10/17 09:25:58;;;;;;;16.80;7.70;;;;;;;15.54;100.00;101682.78;10418306;28;20053;-72
2022/10/17 09:31:07;;;;;;;11.75;8.88;;;;;;;15.38;100.00;101582.75;10417940;28;20076;-76
2022/10/17 09:36:14;;;;;;;15.25;8.30;;;;;;;15.32;100.00;101571.63;10416323;28;20065;-75
2022/10/17 09:41:23;;;;;;;11.15;7.47;;;;;;;15.37;100.00;101594.22;10417378;28;20497;-75
2022/10/17 09:46:36;;;;;;;13.52;8.13;;;;;;;15.40;100.00;101629.06;10420258;28;20089;-72
2022/10/17 09:51:39;;;;;;;11.10;7.45;;;;;;;15.43;100.00;101626.28;10432747;28;20081;-77
2022/10/17 09:57:01;;;;;;;11.45;8.43;;;;;;;15.47;100.00;101626.16;10415917;28;20455;-74
2022/10/17 10:02:19;;;;;;;9.20;7.18;;;;;;;15.47;100.00;101599.84;10414516;28;20485;-74
2022/10/17 10:07:21;;;;;;;12.98;8.43;;;;;;;15.55;100.00;101602.94;10415699;28;20064;-63
2022/10/17 10:12:30;;;;;;;9.93;6.80;;;;;;;15.55;100.00;101618.72;10415424;28;20095;-63
2022/10/17 10:17:40;;;;;;;9.00;7.13;;;;;;;15.55;100.00;101631.88;10415071;28;20100;-62
2022/10/17 10:22:42;;;;;;;10.90;7.30;;;;;;;15.57;100.00;101651.06;10415542;28;20053;-63
2022/10/17 10:27:47;;;;;;;10.20;7.45;;;;;;;15.61;100.00;101665.75;10414420;28;20496;-63
2022/10/17 10:32:50;;;;;;;9.30;6.93;;;;;;;15.66;100.00;101658.47;10412407;28;20120;-61
2022/10/17 10:37:57;;;;;;;7.10;6.10;;;;;;;15.70;100.00;101669.69;10414505;28;20050;-62
2022/10/17 10:43:01;;;;;;;11.40;6.93;;;;;;;15.98;100.00;101688.50;10421415;28;20044;-62
2022/10/17 10:48:20;;;;;;;12.07;6.88;;;;;;;16.07;100.00;101719.59;10421757;28;20094;-64
2022/10/17 10:53:37;;;;;;;13.13;7.18;;;;;;;15.96;100.00;101726.31;10414028;28;20056;-61
2022/10/17 10:58:54;;;;;;;10.48;7.20;;;;;;;15.94;100.00;101717.59;10414126;28;20560;-63
2022/10/17 11:04:28;;;;;;;12.98;8.05;;;;;;;16.07;100.00;101719.59;10412111;28;20111;-63
2022/10/17 11:09:47;;;;;;;14.20;8.70;;;;;;;16.21;100.00;101722.38;10413673;28;20081;-64
2022/10/17 11:14:59;;;;;;;14.40;8.93;;;;;;;16.32;100.00;101727.06;10413922;28;20073;-77
2022/10/17 11:20:18;;;;;;;12.75;9.30;;;;;;;16.41;100.00;101738.91;10414899;28;20559;-79
2022/10/17 11:25:33;;;;;;;10.68;9.55;;;;;;;16.34;100.00;101748.06;10414309;28;20049;-79
2022/10/17 11:30:49;;;;;;;15.52;9.50;;;;;;;16.32;100.00;101765.75;10421068;28;20046;-79
2022/10/17 11:35:55;;;;;;;15.10;9.70;;;;;;;16.34;100.00;101764.75;10424081;28;20049;-79
2022/10/17 11:41:00;;;;;;;16.00;10.23;;;;;;;16.36;100.00;101769.94;10414168;28;20571;-79
2022/10/17 11:46:14;;;;;;;16.83;10.52;;;;;;;16.34;100.00;101774.41;10421299;28;20064;-79
2022/10/17 11:51:17;;;;;;;13.38;10.55;;;;;;;16.29;100.00;101771.19;10419635;28;20049;-79
2022/10/17 11:56:29;;;;;;;14.45;10.88;;;;;;;16.37;100.00;101779.53;10421274;28;20049;-79
2022/10/17 12:01:40;;;;;;;14.68;10.15;;;;;;;16.32;100.00;101779.75;10425805;28;20090;-79
2022/10/17 12:07:10;;;;;;;16.38;10.20;;;;;;;16.33;100.00;101794.63;10440478;28;20057;-77
2022/10/17 12:12:26;;;;;;;14.60;11.70;;;;;;;16.43;100.00;101791.53;10418528;28;20489;-78
2022/10/17 12:17:35;;;;;;;14.35;10.63;;;;;;;16.43;100.00;101787.09;10439563;28;20053;-78
2022/10/17 12:22:47;;;;;;;13.95;10.57;;;;;;;16.38;100.00;101796.19;10439818;28;20099;-79
2022/10/17 12:27:51;;;;;;;14.73;11.77;;;;;;;16.41;100.00;101796.88;10434454;28;20049;-79
2022/10/17 12:33:04;;;;;;;17.38;12.13;;;;;;;16.53;100.00;101787.44;10417693;28;20081;-76
2022/10/17 12:38:26;;;;;;;20.02;13.15;;;;;;;16.94;100.00;101795.88;10431501;28;20056;-77
2022/10/17 12:43:50;;;;;;;17.30;11.98;;;;;;;16.89;100.00;101798.75;10437659;28;20052;-80
2022/10/17 12:49:05;;;;;;;19.13;10.73;;;;;;;16.82;100.00;101802.66;10436198;28;20041;-74
2022/10/17 12:54:14;;;;;;;16.25;11.50;;;;;;;16.91;100.00;101814.50;10440263;28;20083;-73
2022/10/17 12:59:21;;;;;;;16.88;9.85;;;;;;;16.79;100.00;101821.25;10435057;28;20076;-73
2022/10/17 13:04:25;;;;;;;12.50;10.40;;;;;;;16.89;100.00;101838.31;10432386;28;20057;-75
2022/10/17 13:09:35;;;;;;;13.30;10.85;;;;;;;16.77;100.00;101833.69;10419134;28;20084;-78
2022/10/17 13:14:42;;;;;;;16.30;10.95;;;;;;;16.70;100.00;101839.28;10418876;28;20091;-75
2022/10/17 13:19:46;;;;;;;15.50;9.52;;;;;;;16.50;100.00;101839.47;10418687;28;20059;-71
2022/10/17 13:24:50;;;;;;;19.48;10.30;;;;;;;16.60;100.00;101849.44;10443187;28;20473;-74
2022/10/17 13:29:52;;;;;;;20.38;10.82;;;;;;;16.65;100.00;101854.47;10459441;28;20107;-76
2022/10/17 13:35:15;;;;;;;18.77;11.07;;;;;;;16.62;100.00;101865.19;10456622;28;20083;-75
2022/10/17 13:40:20;;;;;;;20.20;12.63;;;;;;;16.58;100.00;101871.53;10457989;28;20485;-73
2022/10/17 13:45:30;;;;;;;22.05;13.88;;;;;;;16.48;100.00;101873.78;10457889;28;20076;-75
2022/10/17 13:50:38;;;;;;;19.08;13.50;;;;;;;16.39;100.00;101880.38;10457796;28;20106;-82
2022/10/17 13:55:55;;;;;;;20.38;14.38;;;;;;;16.39;100.00;101888.28;10457942;28;20555;-76
2022/10/17 14:00:58;;;;;;;22.83;16.63;;;;;;;16.44;100.00;101896.81;10457963;28;20099;-78
2022/10/17 14:06:16;;;;;;;17.60;15.23;;;;;;;16.58;100.00;101900.53;10455390;28;20094;-74
2022/10/17 14:11:27;;;;;;;21.42;15.77;;;;;;;16.77;100.00;101918.03;10429876;28;20084;-74
2022/10/17 14:16:37;;;;;;;19.27;14.07;;;;;;;16.73;100.00;101918.19;10415955;28;20417;-74
2022/10/17 14:21:41;;;;;;;19.02;13.32;;;;;;;16.66;100.00;101929.97;10398463;28;20045;-75
2022/10/17 14:26:52;;;;;;;17.45;13.32;;;;;;;16.70;100.00;101934.16;10417617;28;20074;-75
2022/10/17 14:32:01;;;;;;;15.02;12.95;;;;;;;16.80;100.00;101936.34;10420799;28;20115;-75
2022/10/17 14:37:11;;;;;;;17.27;12.75;;;;;;;16.72;100.00;101941.97;10433758;28;20041;-75
2022/10/17 14:42:20;;;;;;;15.77;12.10;;;;;;;16.65;100.00;101933.53;10431704;28;20060;-77
2022/10/17 14:47:27;;;;;;;15.90;12.68;;;;;;;16.67;100.00;101942.22;10427869;28;20056;-79
2022/10/17 14:52:33;;;;;;;17.42;13.35;;;;;;;16.72;100.00;101927.03;10416362;28;20050;-81
2022/10/17 14:57:43;;;;;;;15.75;12.38;;;;;;;16.78;100.00;101935.53;10416094;28;20505;-79
2022/10/17 15:02:46;;;;;;;18.65;12.77;;;;;;;16.77;100.00;101932.06;10413718;28;20053;-77
2022/10/17 15:07:49;;;;;;;13.93;11.85;;;;;;;16.65;100.00;101930.91;10415243;28;20110;-78
2022/10/17 15:12:51;;;;;;;17.83;12.60;;;;;;;16.67;100.00;101936.97;10414600;28;20096;-78
2022/10/17 15:17:53;;;;;;;17.42;12.73;;;;;;;16.60;100.00;101951.38;10414084;28;20037;-84
2022/10/17 15:22:57;;;;;;;;;;;;;;;16.60;100.00;101959.28;10418717;28;20057;-80
2022/10/17 15:27:59;;;;;;;14.93;12.93;;;;;;;16.65;100.00;101980.97;10419658;28;19921;-84
2022/10/17 15:33:02;;;;;;;;;;;;;;;16.60;100.00;101980.38;10412780;28;20049;-82
2022/10/17 15:38:07;;;;;;;18.23;12.85;;;;;;;16.70;100.00;102001.84;10414067;28;19960;-75
2022/10/17 15:43:09;;;;;;;19.23;12.88;;;;;;;16.54;100.00;102001.72;10413638;28;20057;-62
2022/10/17 15:48:20;;;;;;;20.17;12.82;;;;;;;16.38;100.00;102002.50;10413950;28;20065;-61
2022/10/17 15:53:23;;;;;;;22.15;12.40;;;;;;;16.39;100.00;102009.44;10412740;28;20053;-63
2022/10/17 15:58:27;;;;;;;20.35;12.85;;;;;;;16.31;100.00;102011.59;10412535;28;20623;-62
2022/10/17 16:03:29;;;;;;;21.23;12.23;;;;;;;16.27;100.00;102012.69;10410350;28;20115;-62
2022/10/17 16:08:32;;;;;;;15.98;11.60;;;;;;;16.12;100.00;102023.03;10412381;28;20112;-63
2022/10/17 16:13:34;;;;;;;17.25;12.38;;;;;;;16.06;100.00;102033.84;10413542;28;20096;-63
2022/10/17 16:18:35;;;;;;;16.52;12.20;;;;;;;15.98;100.00;102031.59;10415568;28;20050;-61
2022/10/17 16:23:38;;;;;;;;;;;;;;;15.90;100.00;102029.28;10419940;28;20171;-62
2022/10/17 16:28:41;;;;;;;17.48;12.07;;;;;;;15.87;100.00;102028.56;10419206;28;19975;-62
2022/10/17 16:33:42;;;;;;;17.52;12.38;;;;;;;15.82;100.00;102032.28;10417094;28;20560;-61
2022/10/17 16:38:45;;;;;;;;;;;;;;;15.71;100.00;102035.38;10419432;28;20049;-63
2022/10/17 16:43:48;;;;;;;18.20;12.80;;;;;;;15.70;100.00;102038.94;10419449;28;20491;-62
2022/10/17 16:48:50;;;;;;;22.00;13.75;;;;;;;15.64;100.00;102049.72;10418768;28;20484;-64
2022/10/17 16:53:58;;;;;;;21.23;13.75;;;;;;;15.57;100.00;102043.88;10419002;28;20060;-62
2022/10/17 16:59:01;;;;;;;18.83;13.52;;;;;;;15.57;100.00;102043.06;10419208;28;20046;-63
2022/10/17 17:04:03;;;;;;;22.27;13.63;;;;;;;15.48;100.00;102046.06;10417944;28;20116;-63
2022/10/17 17:09:08;;;;;;;20.60;14.05;;;;;;;15.41;100.00;102056.88;10459320;28;20110;-62
2022/10/17 17:14:12;;;;;;;20.27;13.95;;;;;;;15.35;100.00;102054.50;10454034;28;20051;-75
2022/10/17 17:19:16;;;;;;;23.55;14.50;;;;;;;15.33;100.00;102056.34;10445593;28;20412;-77
2022/10/17 17:24:20;;;;;;;21.77;14.30;;;;;;;15.30;100.00;102053.84;10417301;28;20049;-76
2022/10/17 17:29:24;;;;;;;25.35;16.00;;;;;;;15.27;100.00;102073.25;10417190;28;20072;-76
2022/10/17 17:34:25;;;;;;;27.10;15.32;;;;;;;15.25;100.00;102082.97;10415145;28;20460;-76
2022/10/17 17:39:28;;;;;;;;;;;;;;;15.25;100.00;102084.72;10417567;28;20049;-79
2022/10/17 17:44:31;;;;;;;20.88;14.77;;;;;;;15.24;100.00;102088.28;10417306;28;20395;-75
2022/10/17 17:49:33;;;;;;;25.75;16.42;;;;;;;15.19;100.00;102102.50;10417405;28;20084;-76
2022/10/17 17:54:37;;;;;;;;;;;;;;;15.11;100.00;102115.09;10417488;28;20053;-77
2022/10/17 17:59:40;;;;;;;23.52;14.50;;;;;;;15.10;100.00;102102.88;10416961;28;19948;-76
2022/10/17 18:04:41;;;;;;;25.30;15.00;;;;;;;15.12;100.00;102105.47;10414462;28;20049;-77
2022/10/17 18:09:44;;;;;;;21.95;15.85;;;;;;;15.13;100.00;102108.03;10415948;28;20057;-75
2022/10/17 18:14:47;;;;;;;25.65;16.42;;;;;;;15.07;100.00;102124.03;10449854;28;20071;-78
2022/10/17 18:19:49;;;;;;;24.52;15.82;;;;;;;15.03;100.00;102128.59;10456204;28;20099;-77
2022/10/17 18:24:52;;;;;;;;;;;;;;;14.93;100.00;102132.50;10453688;28;20049;-76
2022/10/17 18:29:53;;;;;;;27.65;16.67;;;;;;;14.86;100.00;102141.53;10456782;28;19928;-78
2022/10/17 18:34:56;;;;;;;30.30;18.65;;;;;;;14.83;100.00;102134.63;10460746;28;20451;-77
2022/10/17 18:40:01;;;;;;;28.77;18.63;;;;;;;14.79;100.00;102138.31;10496675;28;20044;-77
2022/10/17 18:45:04;;;;;;;32.50;18.35;;;;;;;14.75;100.00;102139.31;10497019;28;20056;-77
2022/10/17 18:50:06;;;;;;;36.22;20.63;;;;;;;14.87;100.00;102151.13;10497911;28;20522;-77
2022/10/17 18:55:10;;;;;;;39.60;22.15;;;;;;;14.89;100.00;102147.50;10497871;28;20059;-77
2022/10/17 19:00:13;;;;;;;36.08;21.17;;;;;;;15.02;100.00;102147.88;10497941;28;20458;-82
2022/10/17 19:05:14;;;;;;;39.40;21.55;;;;;;;15.00;100.00;102148.84;10495339;28;20491;-78
2022/10/17 19:10:18;;;;;;;;;;;;;;;15.03;100.00;102154.00;10497586;28;20114;-76
2022/10/17 19:15:20;;;;;;;31.92;19.30;;;;;;;15.03;100.00;102148.75;10498073;28;20005;-78
2022/10/17 19:20:23;;;;;;;31.45;19.70;;;;;;;15.03;100.00;102146.97;10496910;28;20068;-78
2022/10/17 19:25:29;;;;;;;29.52;19.27;;;;;;;14.99;100.00;102148.00;10496737;28;20052;-78
2022/10/17 19:30:31;;;;;;;30.30;18.27;;;;;;;15.02;100.00;102149.66;10496267;28;20040;-76
2022/10/17 19:35:34;;;;;;;32.28;20.13;;;;;;;15.01;100.00;102158.44;10495423;28;20048;-79
2022/10/17 19:40:41;;;;;;;29.48;18.58;;;;;;;15.00;100.00;102164.63;10496449;28;20048;-78
2022/10/17 19:45:42;;;;;;;29.63;18.05;;;;;;;14.98;100.00;102161.22;10496451;28;20052;-78
2022/10/17 19:50:44;;;;;;;27.27;17.52;;;;;;;14.95;100.00;102164.81;10501178;28;20056;-80
2022/10/17 19:55:49;;;;;;;31.92;18.30;;;;;;;14.89;100.00;102176.41;10503979;28;20152;-78
2022/10/17 20:00:54;;;;;;;31.15;18.20;;;;;;;14.85;100.00;102177.47;10504600;28;20072;-77
2022/10/17 20:05:56;;;;;;;27.13;17.83;;;;;;;14.83;100.00;102174.06;10501283;28;20052;-62
2022/10/17 20:11:02;;;;;;;;;;;;;;;14.81;100.00;102181.13;10503345;28;20076;-62
2022/10/17 20:16:07;;;;;;;26.45;16.25;;;;;;;14.78;100.00;102187.34;10503486;28;19924;-63
2022/10/17 20:21:13;;;;;;;32.30;16.48;;;;;;;14.78;100.00;102178.63;10503273;28;20052;-61
2022/10/17 20:26:20;;;;;;;23.92;14.80;;;;;;;14.76;100.00;102180.44;10502662;28;20057;-63
2022/10/17 20:31:22;;;;;;;26.42;15.43;;;;;;;14.69;100.00;102171.94;10501365;28;20124;-64
2022/10/17 20:36:25;;;;;;;27.30;15.77;;;;;;;14.62;100.00;102175.72;10502036;28;20053;-63
2022/10/17 20:41:28;;;;;;;20.63;14.52;;;;;;;14.60;100.00;102178.38;10502674;28;20054;-63
2022/10/17 20:46:30;;;;;;;24.13;14.63;;;;;;;14.53;100.00;102188.28;10501927;28;20052;-63
2022/10/17 20:51:33;;;;;;;23.48;13.55;;;;;;;14.52;100.00;102196.22;10502307;28;20048;-63
2022/10/17 20:56:37;;;;;;;27.48;14.38;;;;;;;14.46;100.00;102197.28;10501857;28;20098;-63
2022/10/17 21:01:39;;;;;;;21.73;14.40;;;;;;;14.41;100.00;102199.25;10498670;28;20112;-63
2022/10/17 21:06:40;;;;;;;;;;;;;;;14.32;100.00;102195.19;10501950;28;20098;-63
2022/10/17 21:11:43;;;;;;;23.52;14.98;;;;;;;14.34;100.00;102197.75;10500834;28;20257;-62
2022/10/17 21:16:47;;;;;;;25.45;15.13;;;;;;;14.31;100.00;102190.84;10500764;28;20105;-63
2022/10/17 21:21:50;;;;;;;25.42;14.90;;;;;;;14.28;100.00;102194.47;10500161;28;20409;-62
2022/10/17 21:26:56;;;;;;;24.50;15.05;;;;;;;14.23;100.00;102204.25;10500912;28;20053;-63
2022/10/17 21:31:57;;;;;;;26.92;15.25;;;;;;;14.13;100.00;102211.59;10498451;28;20818;-63
2022/10/17 21:36:59;;;;;;;;;;;;;;;14.05;100.00;102218.88;10500514;28;20044;-63
2022/10/17 21:42:03;;;;;;;27.10;14.73;;;;;;;14.01;100.00;102233.03;10499781;28;19959;-62
2022/10/17 21:47:04;;;;;;;24.92;14.98;;;;;;;13.99;100.00;102221.75;10500339;28;20048;-77
2022/10/17 21:52:06;;;;;;;28.40;15.00;;;;;;;13.95;100.00;102227.97;10496535;28;20059;-76
2022/10/17 21:57:10;;;;;;;25.65;15.27;;;;;;;13.88;100.00;102249.22;10456769;28;20049;-77
2022/10/17 22:02:15;;;;;;;22.85;14.85;;;;;;;13.85;100.00;102254.56;10456460;28;20059;-76
2022/10/17 22:07:16;;;;;;;22.83;14.15;;;;;;;13.75;100.00;102258.38;10458379;28;20102;-63
2022/10/17 22:12:19;;;;;;;29.95;14.50;;;;;;;13.61;100.00;102256.22;10456979;28;20443;-75
2022/10/17 22:17:21;;;;;;;30.42;14.43;;;;;;;13.57;100.00;102259.84;10457066;28;20075;-77
2022/10/17 22:22:23;;;;;;;31.15;14.02;;;;;;;13.53;100.00;102266.97;10457062;28;20044;-77
2022/10/17 22:27:26;;;;;;;23.88;14.30;;;;;;;13.57;100.00;102255.47;10457171;28;20467;-77
2022/10/17 22:32:27;;;;;;;22.55;14.82;;;;;;;13.59;100.00;102258.03;10455138;28;20103;-78
2022/10/17 22:37:29;;;;;;;27.05;14.15;;;;;;;13.61;100.00;102261.47;10456370;28;20041;-77
2022/10/17 22:42:34;;;;;;;19.48;13.48;;;;;;;13.68;100.00;102264.78;10456616;28;20110;-79
2022/10/17 22:47:35;;;;;;;24.73;14.55;;;;;;;13.74;100.00;102267.16;10456610;28;20044;-62
2022/10/17 22:52:37;;;;;;;25.13;13.18;;;;;;;13.79;100.00;102267.88;10455152;28;20048;-62
2022/10/17 22:57:40;;;;;;;25.70;13.10;;;;;;;13.77;100.00;102262.69;10455353;28;20053;-64
2022/10/17 23:02:42;;;;;;;23.00;13.63;;;;;;;13.77;100.00;102275.81;10452943;28;20049;-62